Time;durP1;ratioP1;P1;durP2;ratioP2;P2;SDS_P1;SDS_P2;PMS_P1;PMS_P2;Temp;Humidity;BMP_temperature;BMP_pressure;BME280_temperature;BME280_humidity;BME280_pressure;Samples;Min_cycle;Max_cycle;Signal;HPM_P1;HPM_P2
2023/04/27 00:01:46;;;;;;;4.85;3.40;;;;;;;;;;5032825;28;20768;-87
2023/04/27 00:04:15;;;;;;;4.82;3.20;;;;;;;;;;5037891;28;20052;-86
2023/04/27 00:06:43;;;;;;;4.47;3.63;;;;;;;;;;5034789;28;20049;-85
2023/04/27 00:09:10;;;;;;;5.78;3.50;;;;;;;;;;5036532;28;20049;-86
2023/04/27 00:11:39;;;;;;;3.42;2.72;;;;;;;;;;5035254;28;20395;-86
2023/04/27 00:14:07;;;;;;;7.00;2.92;;;;;;;;;;5027629;28;20047;-85
2023/04/27 00:16:35;;;;;;;4.13;2.92;;;;;;;;;;5044305;28;20036;-86
2023/04/27 00:19:03;;;;;;;5.32;2.88;;;;;;;;;;5066757;28;20060;-85
2023/04/27 00:21:30;;;;;;;3.08;2.80;;;;;;;;;;5042595;28;20051;-85
2023/04/27 00:23:58;;;;;;;4.07;2.67;;;;;;;;;;5031843;28;20554;-86
2023/04/27 00:26:25;;;;;;;2.83;2.63;;;;;;;;;;5037461;28;20045;-86
2023/04/27 00:28:55;;;;;;;3.40;3.10;;;;;;;;;;5018752;28;20075;-85
2023/04/27 00:31:23;;;;;;;2.38;2.20;;;;;;;;;;5030649;28;20785;-86
2023/04/27 00:33:51;;;;;;;3.17;2.88;;;;;;;;;;5041042;28;20662;-85
2023/04/27 00:36:18;;;;;;;3.08;2.78;;;;;;;;;;5022951;28;20502;-86
2023/04/27 00:38:47;;;;;;;4.35;3.00;;;;;;;;;;5021643;28;20057;-85
2023/04/27 00:41:15;;;;;;;3.92;3.10;;;;;;;;;;5035517;28;20450;-85
2023/04/27 00:43:43;;;;;;;3.67;3.03;;;;;;;;;;5018844;28;20470;-86
2023/04/27 00:46:20;;;;;;;5.40;3.13;;;;;;;;;;5037177;28;20037;-86
2023/04/27 00:48:47;;;;;;;6.32;3.10;;;;;;;;;;5045079;28;20052;-85
2023/04/27 00:51:15;;;;;;;3.92;3.17;;;;;;;;;;5034941;28;20064;-85
2023/04/27 00:53:42;;;;;;;3.20;2.95;;;;;;;;;;5004244;28;20073;-85
2023/04/27 00:56:12;;;;;;;3.20;2.83;;;;;;;;;;5034813;28;20245;-86
2023/04/27 00:58:39;;;;;;;4.90;3.20;;;;;;;;;;5012232;28;20046;-86
2023/04/27 01:01:10;;;;;;;5.43;3.50;;;;;;;;;;5015954;28;20044;-85
2023/04/27 01:03:37;;;;;;;4.05;3.17;;;;;;;;;;5033856;28;20038;-85
2023/04/27 01:06:06;;;;;;;4.82;3.40;;;;;;;;;;5030534;28;20099;-85
2023/04/27 01:08:35;;;;;;;3.70;3.40;;;;;;;;;;5014875;28;20113;-86
2023/04/27 01:11:02;;;;;;;3.83;3.53;;;;;;;;;;5024489;28;20053;-86
2023/04/27 01:13:30;;;;;;;3.42;3.13;;;;;;;;;;5018747;28;20510;-85
2023/04/27 01:15:58;;;;;;;4.03;2.70;;;;;;;;;;5035267;28;20094;-86
2023/04/27 01:18:25;;;;;;;4.72;3.10;;;;;;;;;;5022682;28;20049;-85
2023/04/27 01:20:53;;;;;;;3.50;2.95;;;;;;;;;;5036758;28;20485;-85
2023/04/27 01:23:20;;;;;;;15.18;10.60;;;;;;;;;;5032877;28;20388;-86
2023/04/27 01:25:48;;;;;;;5.57;2.90;;;;;;;;;;5027618;28;20042;-86
2023/04/27 01:28:15;;;;;;;3.28;2.97;;;;;;;;;;5028310;28;20045;-85
2023/04/27 01:30:46;;;;;;;5.40;2.60;;;;;;;;;;5028637;28;20041;-85
2023/04/27 01:33:13;;;;;;;3.38;3.08;;;;;;;;;;5015994;28;20101;-85
2023/04/27 01:35:41;;;;;;;3.13;2.90;;;;;;;;;;5017909;28;20037;-86
2023/04/27 01:38:08;;;;;;;6.70;3.45;;;;;;;;;;5034695;28;20056;-85
2023/04/27 01:40:35;;;;;;;3.25;2.92;;;;;;;;;;5025825;28;20511;-85
2023/04/27 01:43:03;;;;;;;3.60;3.30;;;;;;;;;;5023332;28;20110;-85
2023/04/27 01:45:30;;;;;;;5.10;3.35;;;;;;;;;;5030449;28;20049;-84
2023/04/27 01:47:59;;;;;;;3.03;2.72;;;;;;;;;;5033596;28;20080;-85
2023/04/27 01:50:26;;;;;;;3.72;3.35;;;;;;;;;;5048234;28;20040;-85
2023/04/27 01:52:54;;;;;;;3.38;2.50;;;;;;;;;;5038143;28;20052;-86
2023/04/27 01:55:21;;;;;;;4.22;2.60;;;;;;;;;;5032845;28;20037;-85
2023/04/27 01:57:49;;;;;;;3.83;3.38;;;;;;;;;;5015604;28;20045;-85
2023/04/27 02:00:17;;;;;;;3.45;3.10;;;;;;;;;;5030504;28;20095;-85
2023/04/27 02:02:49;;;;;;;4.03;3.73;;;;;;;;;;5005822;28;20103;-85
2023/04/27 02:05:17;;;;;;;4.00;3.10;;;;;;;;;;5025976;28;20045;-85
2023/04/27 02:07:46;;;;;;;3.80;3.38;;;;;;;;;;5012993;28;20069;-85
2023/04/27 02:10:13;;;;;;;3.47;3.17;;;;;;;;;;5015663;28;20073;-85
2023/04/27 02:12:40;;;;;;;3.33;3.03;;;;;;;;;;5021708;28;20079;-85
2023/04/27 02:15:08;;;;;;;3.00;2.72;;;;;;;;;;5030895;28;20103;-86
2023/04/27 02:17:37;;;;;;;4.95;3.30;;;;;;;;;;5017129;28;20054;-85
2023/04/27 02:20:08;;;;;;;3.77;3.30;;;;;;;;;;5039033;28;20076;-85
2023/04/27 02:22:36;;;;;;;4.65;3.35;;;;;;;;;;5027130;28;20299;-85
2023/04/27 02:25:04;;;;;;;3.95;3.15;;;;;;;;;;5037641;28;20136;-85
2023/04/27 02:27:31;;;;;;;3.63;3.33;;;;;;;;;;5031378;28;20490;-85
2023/04/27 02:29:59;;;;;;;4.68;3.10;;;;;;;;;;5026246;28;20057;-85
2023/04/27 02:32:27;;;;;;;4.80;2.58;;;;;;;;;;5012815;28;20503;-85
2023/04/27 02:34:55;;;;;;;3.97;3.10;;;;;;;;;;5011417;28;20132;-86
2023/04/27 02:37:22;;;;;;;4.55;3.28;;;;;;;;;;5022572;28;20042;-86
2023/04/27 02:39:50;;;;;;;4.03;3.28;;;;;;;;;;5015304;28;20065;-85
2023/04/27 02:42:17;;;;;;;3.63;3.33;;;;;;;;;;5021558;28;20037;-86
2023/04/27 02:44:45;;;;;;;3.97;3.42;;;;;;;;;;5025488;28;20056;-86
2023/04/27 02:47:12;;;;;;;5.15;3.72;;;;;;;;;;5017264;28;20052;-86
2023/04/27 02:49:42;;;;;;;6.38;3.90;;;;;;;;;;5052080;28;20065;-84
2023/04/27 02:52:09;;;;;;;4.00;3.60;;;;;;;;;;5056479;28;20038;-84
2023/04/27 02:54:36;;;;;;;4.03;3.08;;;;;;;;;;5043098;28;20069;-85
2023/04/27 02:57:04;;;;;;;4.35;3.35;;;;;;;;;;5040620;28;20167;-85
2023/04/27 02:59:34;;;;;;;3.53;3.22;;;;;;;;;;5047421;28;20030;-84
2023/04/27 03:02:16;;;;;;;7.95;3.70;;;;;;;;;;5041921;28;20088;-84
2023/04/27 03:04:43;;;;;;;3.38;3.08;;;;;;;;;;5042292;28;20042;-85
2023/04/27 03:07:11;;;;;;;3.80;3.50;;;;;;;;;;5032893;28;20136;-83
2023/04/27 03:09:39;;;;;;;5.70;3.00;;;;;;;;;;5025534;28;20112;-84
2023/04/27 03:12:06;;;;;;;3.67;3.13;;;;;;;;;;5018491;28;20051;-85
2023/04/27 03:14:34;;;;;;;13.05;3.80;;;;;;;;;;5033711;28;20053;-85
2023/04/27 03:17:02;;;;;;;3.95;3.55;;;;;;;;;;5031103;28;20045;-85
2023/04/27 03:19:29;;;;;;;3.78;3.15;;;;;;;;;;5034727;28;20065;-85
2023/04/27 03:21:57;;;;;;;4.97;3.63;;;;;;;;;;5021282;28;20049;-85
2023/04/27 03:24:24;;;;;;;6.50;3.65;;;;;;;;;;5052123;28;20037;-84
2023/04/27 03:26:52;;;;;;;4.75;3.75;;;;;;;;;;5045863;28;20049;-85
2023/04/27 03:29:20;;;;;;;5.75;3.92;;;;;;;;;;5022514;28;20065;-84
2023/04/27 03:31:47;;;;;;;3.80;3.50;;;;;;;;;;5011733;28;20131;-85
2023/04/27 03:34:15;;;;;;;4.65;3.22;;;;;;;;;;5031813;28;20049;-84
2023/04/27 03:36:43;;;;;;;4.32;3.67;;;;;;;;;;5030224;28;20091;-85
2023/04/27 03:39:10;;;;;;;3.63;3.33;;;;;;;;;;5016433;28;20041;-84
2023/04/27 03:41:38;;;;;;;3.25;2.78;;;;;;;;;;5018436;28;20136;-84
2023/04/27 03:44:06;;;;;;;3.03;2.75;;;;;;;;;;5039462;28;20131;-84
2023/04/27 03:46:33;;;;;;;4.22;2.88;;;;;;;;;;5019273;28;20115;-84
2023/04/27 03:49:02;;;;;;;4.00;3.60;;;;;;;;;;5035795;28;20045;-84
2023/04/27 03:51:33;;;;;;;3.92;3.58;;;;;;;;;;5018674;28;20474;-84
2023/04/27 03:54:00;;;;;;;20.08;10.00;;;;;;;;;;5029502;28;20111;-85
2023/04/27 03:56:28;;;;;;;4.72;3.42;;;;;;;;;;5014036;28;20048;-85
2023/04/27 03:58:57;;;;;;;3.58;2.88;;;;;;;;;;5021103;28;20099;-85
2023/04/27 04:01:36;;;;;;;4.32;3.38;;;;;;;;;;5017620;28;20111;-85
2023/04/27 04:04:03;;;;;;;3.85;3.50;;;;;;;;;;5035210;28;20145;-85
2023/04/27 04:06:31;;;;;;;3.78;3.28;;;;;;;;;;5017538;28;20045;-85
2023/04/27 04:08:59;;;;;;;3.95;3.65;;;;;;;;;;5028452;28;20052;-86
2023/04/27 04:11:26;;;;;;;5.55;3.60;;;;;;;;;;5019261;28;20052;-84
2023/04/27 04:13:57;;;;;;;3.40;3.20;;;;;;;;;;5041846;28;20052;-84
2023/04/27 04:16:24;;;;;;;3.95;3.35;;;;;;;;;;5025855;28;20061;-85
2023/04/27 04:18:52;;;;;;;4.38;3.45;;;;;;;;;;5028589;28;20037;-85
2023/04/27 04:21:21;;;;;;;5.85;3.47;;;;;;;;;;5013253;28;20052;-85
2023/04/27 04:23:48;;;;;;;3.60;3.30;;;;;;;;;;5011942;28;20067;-86
2023/04/27 04:26:17;;;;;;;3.88;3.58;;;;;;;;;;5012123;28;20037;-85
2023/04/27 04:28:45;;;;;;;4.68;3.67;;;;;;;;;;5024708;28;20414;-85
2023/04/27 04:31:14;;;;;;;6.25;3.72;;;;;;;;;;5027849;28;20076;-85
2023/04/27 04:33:42;;;;;;;4.82;4.13;;;;;;;;;;5011192;28;20056;-87
2023/04/27 04:36:09;;;;;;;3.85;3.45;;;;;;;;;;5012565;28;20072;-85
2023/04/27 04:38:37;;;;;;;4.20;3.70;;;;;;;;;;5010112;28;20741;-85
2023/04/27 04:41:06;;;;;;;4.55;3.60;;;;;;;;;;5008647;28;20069;-85
2023/04/27 04:43:33;;;;;;;5.43;3.83;;;;;;;;;;5027363;28;20041;-85
2023/04/27 04:46:03;;;;;;;7.68;3.83;;;;;;;;;;5020433;28;20045;-86
2023/04/27 04:48:31;;;;;;;3.92;3.50;;;;;;;;;;5028551;28;20041;-87
2023/04/27 04:50:59;;;;;;;7.70;4.00;;;;;;;;;;5033509;28;20033;-86
2023/04/27 04:53:26;;;;;;;6.05;3.92;;;;;;;;;;5029885;28;20098;-86
2023/04/27 04:55:55;;;;;;;6.60;3.97;;;;;;;;;;5015466;28;20406;-86
2023/04/27 04:58:22;;;;;;;5.72;4.20;;;;;;;;;;5029258;28;20090;-86
2023/04/27 05:00:50;;;;;;;4.85;4.10;;;;;;;;;;5026660;28;20415;-84
2023/04/27 05:03:17;;;;;;;7.57;3.85;;;;;;;;;;5030655;28;20464;-85
2023/04/27 05:05:47;;;;;;;5.72;4.20;;;;;;;;;;5030613;28;20080;-86
2023/04/27 05:08:16;;;;;;;8.57;4.35;;;;;;;;;;5026224;28;20041;-85
2023/04/27 05:10:48;;;;;;;6.07;4.40;;;;;;;;;;5034424;28;20054;-85
2023/04/27 05:13:16;;;;;;;5.60;4.38;;;;;;;;;;5027160;28;20049;-84
2023/04/27 05:15:43;;;;;;;5.90;4.55;;;;;;;;;;5035471;28;20049;-86
2023/04/27 05:18:14;;;;;;;11.75;4.40;;;;;;;;;;5035860;28;20050;-86
2023/04/27 05:20:41;;;;;;;6.63;4.57;;;;;;;;;;5036131;28;20107;-85
2023/04/27 05:23:09;;;;;;;6.90;4.72;;;;;;;;;;5028891;28;20631;-85
2023/04/27 05:25:40;;;;;;;7.93;6.07;;;;;;;;;;5031140;28;20056;-86
2023/04/27 05:28:08;;;;;;;7.00;3.95;;;;;;;;;;5043633;28;20040;-85
2023/04/27 05:30:35;;;;;;;6.18;4.07;;;;;;;;;;5031198;28;20053;-85
2023/04/27 05:33:03;;;;;;;6.68;4.53;;;;;;;;;;5028302;28;20049;-85
2023/04/27 05:35:31;;;;;;;5.22;4.40;;;;;;;;;;5048955;28;20499;-87
2023/04/27 05:37:58;;;;;;;6.38;3.70;;;;;;;;;;5035112;28;20060;-86
2023/04/27 05:40:26;;;;;;;4.18;3.20;;;;;;;;;;5027968;28;20528;-85
2023/04/27 05:42:53;;;;;;;5.30;3.60;;;;;;;;;;5031437;28;20073;-85
2023/04/27 05:45:21;;;;;;;5.22;4.72;;;;;;;;;;5033496;28;20740;-86
2023/04/27 05:47:48;;;;;;;5.20;4.10;;;;;;;;;;5030499;28;20052;-86
2023/04/27 05:50:16;;;;;;;4.57;3.20;;;;;;;;;;5041429;28;20060;-85
2023/04/27 05:52:43;;;;;;;3.42;3.22;;;;;;;;;;5028071;28;20061;-84
2023/04/27 05:55:12;;;;;;;4.13;3.72;;;;;;;;;;5035198;28;20419;-85
2023/04/27 05:57:40;;;;;;;8.90;4.55;;;;;;;;;;5036761;28;20049;-85
2023/04/27 06:00:09;;;;;;;4.85;3.38;;;;;;;;;;5038546;28;20104;-85
2023/04/27 06:02:40;;;;;;;3.40;3.10;;;;;;;;;;5030560;28;20422;-86
2023/04/27 06:05:07;;;;;;;6.22;4.00;;;;;;;;;;5040857;28;20045;-86
2023/04/27 06:07:36;;;;;;;5.03;3.63;;;;;;;;;;5050718;28;20130;-84
2023/04/27 06:10:04;;;;;;;5.60;3.70;;;;;;;;;;5049168;28;20041;-85
2023/04/27 06:12:31;;;;;;;7.32;3.67;;;;;;;;;;5041113;28;20045;-84
2023/04/27 06:14:59;;;;;;;5.72;3.40;;;;;;;;;;5039003;28;20064;-85
2023/04/27 06:17:26;;;;;;;6.88;3.90;;;;;;;;;;5016604;28;20025;-85
2023/04/27 06:19:54;;;;;;;6.53;4.80;;;;;;;;;;5054444;28;20038;-85
2023/04/27 06:22:21;;;;;;;6.70;3.58;;;;;;;;;;5061732;28;20041;-85
2023/04/27 06:24:48;;;;;;;6.32;3.60;;;;;;;;;;5049841;28;20025;-84
2023/04/27 06:27:16;;;;;;;9.05;3.97;;;;;;;;;;5050144;28;20108;-85
2023/04/27 06:29:43;;;;;;;5.05;3.83;;;;;;;;;;5049998;28;20125;-85
2023/04/27 06:32:10;;;;;;;9.60;3.90;;;;;;;;;;5048254;28;20104;-84
2023/04/27 06:34:38;;;;;;;6.18;5.00;;;;;;;;;;5031660;28;20410;-85
2023/04/27 06:37:06;;;;;;;4.57;4.18;;;;;;;;;;5028816;28;20446;-84
2023/04/27 06:39:33;;;;;;;4.78;4.05;;;;;;;;;;5029946;28;20072;-85
2023/04/27 06:42:00;;;;;;;3.45;3.15;;;;;;;;;;5031770;28;20431;-84
2023/04/27 06:44:28;;;;;;;4.30;3.45;;;;;;;;;;5014215;28;20211;-85
2023/04/27 06:46:57;;;;;;;5.80;3.47;;;;;;;;;;5029841;28;20392;-85
2023/04/27 06:49:25;;;;;;;8.07;3.95;;;;;;;;;;5026418;28;20045;-85
2023/04/27 06:51:52;;;;;;;4.00;3.70;;;;;;;;;;5029910;28;20045;-85
2023/04/27 06:54:20;;;;;;;10.02;4.63;;;;;;;;;;5029840;28;20059;-85
2023/04/27 06:56:47;;;;;;;6.47;3.95;;;;;;;;;;5031360;28;20084;-85
2023/04/27 06:59:15;;;;;;;4.30;3.88;;;;;;;;;;5029522;28;20060;-85
2023/04/27 07:01:42;;;;;;;6.72;4.18;;;;;;;;;;5028407;28;20045;-86
2023/04/27 07:04:10;;;;;;;7.28;3.72;;;;;;;;;;5028226;28;20694;-86
2023/04/27 07:06:37;;;;;;;5.55;3.70;;;;;;;;;;5029713;28;20387;-85
2023/04/27 07:09:06;;;;;;;4.70;3.63;;;;;;;;;;5029222;28;20107;-85
2023/04/27 07:11:52;;;;;;;8.85;3.70;;;;;;;;;;5028660;28;20045;-85
2023/04/27 07:14:20;;;;;;;5.00;3.10;;;;;;;;;;5025549;28;20742;-86
2023/04/27 07:16:48;;;;;;;3.47;3.17;;;;;;;;;;5023637;28;20041;-85
2023/04/27 07:19:15;;;;;;;6.22;3.40;;;;;;;;;;5030036;28;20048;-85
2023/04/27 07:21:43;;;;;;;7.63;4.05;;;;;;;;;;5029163;28;20056;-86
2023/04/27 07:24:12;;;;;;;4.82;3.78;;;;;;;;;;5025513;28;20052;-85
2023/04/27 07:26:40;;;;;;;6.45;3.65;;;;;;;;;;5030337;28;20053;-85
2023/04/27 07:29:08;;;;;;;10.15;3.65;;;;;;;;;;5030742;28;20406;-85
2023/04/27 07:31:54;;;;;;;3.85;3.50;;;;;;;;;;5029455;28;20140;-85
2023/04/27 07:34:31;;;;;;;56.83;33.83;;;;;;;;;;5016318;28;20128;-86
2023/04/27 07:37:16;;;;;;;20.88;18.38;;;;;;;;;;5027599;28;20419;-83
2023/04/27 07:39:43;;;;;;;5.10;3.30;;;;;;;;;;5030455;28;20053;-86
2023/04/27 07:42:12;;;;;;;4.75;3.35;;;;;;;;;;5025994;28;21634;-87
2023/04/27 07:44:41;;;;;;;5.18;3.50;;;;;;;;;;5027057;28;20037;-86
2023/04/27 07:47:08;;;;;;;4.63;3.88;;;;;;;;;;5031048;28;20049;-85
2023/04/27 07:49:37;;;;;;;10.20;3.80;;;;;;;;;;5025783;28;20038;-85
2023/04/27 07:52:04;;;;;;;7.63;3.60;;;;;;;;;;5025356;28;20083;-86
2023/04/27 07:54:31;;;;;;;9.48;3.53;;;;;;;;;;5026633;28;20056;-86
2023/04/27 07:56:59;;;;;;;5.78;3.60;;;;;;;;;;5030550;28;20709;-87
2023/04/27 07:59:29;;;;;;;3.67;3.28;;;;;;;;;;5029187;28;20123;-86
2023/04/27 08:01:56;;;;;;;4.60;3.88;;;;;;;;;;5030531;28;20038;-86
2023/04/27 08:04:43;;;;;;;6.40;4.03;;;;;;;;;;5025771;28;20030;-87
2023/04/27 08:07:11;;;;;;;7.05;3.15;;;;;;;;;;5021769;28;20041;-87
2023/04/27 08:09:42;;;;;;;5.50;3.63;;;;;;;;;;5036286;28;20100;-87
2023/04/27 08:12:09;;;;;;;4.90;3.65;;;;;;;;;;5023175;28;20062;-87
2023/04/27 08:14:37;;;;;;;6.25;3.70;;;;;;;;;;5041396;28;20097;-87
2023/04/27 08:17:05;;;;;;;9.68;3.60;;;;;;;;;;5023223;28;20758;-87
2023/04/27 08:19:34;;;;;;;3.42;3.13;;;;;;;;;;5008874;28;20243;-87
2023/04/27 08:22:05;;;;;;;7.18;3.40;;;;;;;;;;5025096;28;20498;-88
2023/04/27 08:24:32;;;;;;;3.63;3.33;;;;;;;;;;5023847;28;20042;-88
2023/04/27 08:27:05;;;;;;;7.50;3.50;;;;;;;;;;5013544;28;20907;-89
2023/04/27 08:29:33;;;;;;;8.30;3.42;;;;;;;;;;5032956;28;20036;-88
2023/04/27 08:32:02;;;;;;;5.25;3.72;;;;;;;;;;5016283;28;20138;-88
2023/04/27 08:34:29;;;;;;;6.80;4.10;;;;;;;;;;5030607;28;20045;-89
2023/04/27 08:36:57;;;;;;;3.92;3.40;;;;;;;;;;5035304;28;20056;-87
2023/04/27 08:39:25;;;;;;;6.57;3.50;;;;;;;;;;5026776;28;20053;-88
2023/04/27 08:41:53;;;;;;;7.22;3.05;;;;;;;;;;5024237;28;20052;-88
2023/04/27 08:44:20;;;;;;;6.65;3.22;;;;;;;;;;5031156;28;20060;-86
2023/04/27 08:46:50;;;;;;;7.05;3.42;;;;;;;;;;5030373;28;20077;-87
2023/04/27 08:49:21;;;;;;;8.13;3.47;;;;;;;;;;5029930;28;20372;-87
2023/04/27 08:51:54;;;;;;;6.72;3.20;;;;;;;;;;5029558;28;20049;-87
2023/04/27 08:54:24;;;;;;;5.22;2.95;;;;;;;;;;5029658;28;20053;-88
2023/04/27 08:56:51;;;;;;;5.90;2.70;;;;;;;;;;5012785;28;20099;-88
2023/04/27 08:59:22;;;;;;;14.15;8.43;;;;;;;;;;5030628;28;20124;-88
2023/04/27 09:01:50;;;;;;;4.40;2.20;;;;;;;;;;5030126;28;20045;-87
2023/04/27 09:04:18;;;;;;;4.68;2.60;;;;;;;;;;5028946;28;20049;-86
2023/04/27 09:06:47;;;;;;;2.90;2.17;;;;;;;;;;5030077;28;20048;-86
2023/04/27 09:09:22;;;;;;;6.50;2.75;;;;;;;;;;5029926;28;20060;-86
2023/04/27 09:11:50;;;;;;;6.40;3.00;;;;;;;;;;5031781;28;20045;-86
2023/04/27 09:14:18;;;;;;;36.60;32.53;;;;;;;;;;5030350;28;20049;-87
2023/04/27 09:16:54;;;;;;;5.57;2.33;;;;;;;;;;5031294;28;20069;-86
2023/04/27 09:19:25;;;;;;;4.72;3.20;;;;;;;;;;5032279;28;20136;-87
2023/04/27 09:22:02;;;;;;;6.72;4.28;;;;;;;;;;5031512;28;20487;-87
2023/04/27 09:24:30;;;;;;;29.23;26.55;;;;;;;;;;5030190;28;20591;-87
2023/04/27 09:26:58;;;;;;;4.35;2.10;;;;;;;;;;5031198;28;20067;-88
2023/04/27 09:29:34;;;;;;;25.02;23.13;;;;;;;;;;5033310;28;20037;-86
2023/04/27 09:32:02;;;;;;;4.13;2.53;;;;;;;;;;5037828;28;20527;-87
2023/04/27 09:34:40;;;;;;;4.38;2.63;;;;;;;;;;5035271;28;20050;-87
2023/04/27 09:37:08;;;;;;;3.92;2.53;;;;;;;;;;5045275;28;20049;-87
2023/04/27 09:39:36;;;;;;;5.15;2.33;;;;;;;;;;5041958;28;20518;-88
2023/04/27 09:42:03;;;;;;;2.83;2.38;;;;;;;;;;5051019;28;20044;-87
2023/04/27 09:44:31;;;;;;;11.27;2.60;;;;;;;;;;5051860;28;20140;-87
2023/04/27 09:47:27;;;;;;;3.38;2.00;;;;;;;;;;5058810;28;20079;-92
2023/04/27 09:49:55;;;;;;;5.75;2.88;;;;;;;;;;5058665;28;20042;-85
2023/04/27 09:52:22;;;;;;;3.92;2.20;;;;;;;;;;5059223;28;20043;-85
2023/04/27 09:54:50;;;;;;;5.07;2.70;;;;;;;;;;5059217;28;20056;-85
2023/04/27 09:57:23;;;;;;;3.80;2.35;;;;;;;;;;5072497;22;20051;-82
2023/04/27 10:00:09;;;;;;;3.08;2.00;;;;;;;;;;5028556;28;20252;-80
2023/04/27 10:03:07;;;;;;;6.43;2.40;;;;;;;;;;5027046;28;20050;-82
2023/04/27 10:05:41;;;;;;;3.35;2.10;;;;;;;;;;5031291;28;20067;-83
2023/04/27 10:08:10;;;;;;;6.47;2.45;;;;;;;;;;5036782;28;20041;-80
2023/04/27 10:11:04;;;;;;;4.07;1.83;;;;;;;;;;5035427;28;20051;-81
2023/04/27 10:13:31;;;;;;;4.75;2.15;;;;;;;;;;5015455;28;20141;-81
2023/04/27 10:16:15;;;;;;;5.20;2.28;;;;;;;;;;5035844;28;20080;-82
2023/04/27 10:18:50;;;;;;;9.45;7.82;;;;;;;;;;5021407;28;20049;-82
2023/04/27 10:21:18;;;;;;;4.40;3.88;;;;;;;;;;5038965;28;20056;-84
2023/04/27 10:23:47;;;;;;;4.90;2.25;;;;;;;;;;5037673;28;20419;-81
2023/04/27 10:26:27;;;;;;;3.03;1.80;;;;;;;;;;5014660;28;20046;-82
2023/04/27 10:28:56;;;;;;;2.83;2.28;;;;;;;;;;5028499;28;20423;-82
2023/04/27 10:31:28;;;;;;;45.70;40.75;;;;;;;;;;5033310;28;20357;-83
2023/04/27 10:34:06;;;;;;;12.73;11.68;;;;;;;;;;5019117;28;20117;-82
2023/04/27 10:36:38;;;;;;;78.72;71.60;;;;;;;;;;5035858;28;20090;-83
2023/04/27 10:39:16;;;;;;;2.90;2.15;;;;;;;;;;5025924;28;20582;-83
2023/04/27 10:41:51;;;;;;;3.92;2.40;;;;;;;;;;5028779;28;20049;-82
2023/04/27 10:44:27;;;;;;;3.78;1.95;;;;;;;;;;5013370;28;20045;-82
2023/04/27 10:46:56;;;;;;;3.63;2.30;;;;;;;;;;5032332;28;21018;-83
2023/04/27 10:49:23;;;;;;;2.17;1.90;;;;;;;;;;5031517;28;20042;-83
2023/04/27 10:51:51;;;;;;;3.28;2.15;;;;;;;;;;5022992;28;20045;-82
2023/04/27 10:54:18;;;;;;;3.08;1.70;;;;;;;;;;5042359;28;20064;-83
2023/04/27 10:56:46;;;;;;;3.83;2.53;;;;;;;;;;5033982;28;20411;-82
2023/04/27 10:59:14;;;;;;;5.82;2.05;;;;;;;;;;5028717;28;20073;-82
2023/04/27 11:01:42;;;;;;;6.00;2.33;;;;;;;;;;5030433;28;20079;-82
2023/04/27 11:04:09;;;;;;;3.08;2.30;;;;;;;;;;5013007;28;20295;-81
2023/04/27 11:06:41;;;;;;;2.85;2.03;;;;;;;;;;5023989;28;20115;-82
2023/04/27 11:09:10;;;;;;;4.93;2.72;;;;;;;;;;5030184;28;20044;-83
2023/04/27 11:11:37;;;;;;;4.75;3.85;;;;;;;;;;5036171;28;20060;-83
2023/04/27 11:14:06;;;;;;;2.20;1.98;;;;;;;;;;5027799;28;20076;-84
2023/04/27 11:16:35;;;;;;;6.45;5.90;;;;;;;;;;5039670;28;20053;-82
2023/04/27 11:19:05;;;;;;;4.80;2.20;;;;;;;;;;5012780;28;20418;-84
2023/04/27 11:21:36;;;;;;;3.10;2.10;;;;;;;;;;5032506;28;20045;-83
2023/04/27 11:24:05;;;;;;;4.95;2.60;;;;;;;;;;5015417;28;20091;-85
2023/04/27 11:26:32;;;;;;;6.65;2.13;;;;;;;;;;5030087;28;20049;-83
2023/04/27 11:29:12;;;;;;;4.05;2.80;;;;;;;;;;5027818;28;20693;-81
2023/04/27 11:31:48;;;;;;;1.93;1.70;;;;;;;;;;5027209;28;20503;-80
2023/04/27 11:34:20;;;;;;;19.30;15.15;;;;;;;;;;5043471;28;20053;-81
2023/04/27 11:37:00;;;;;;;2.00;1.90;;;;;;;;;;5024662;28;20053;-81
2023/04/27 11:39:35;;;;;;;3.83;2.30;;;;;;;;;;5019371;28;20451;-80
2023/04/27 11:42:15;;;;;;;2.80;1.80;;;;;;;;;;5019299;28;20332;-82
2023/04/27 11:44:42;;;;;;;3.22;1.80;;;;;;;;;;5024842;28;20886;-81
2023/04/27 11:47:15;;;;;;;2.45;2.22;;;;;;;;;;5007460;28;20049;-81
2023/04/27 11:49:48;;;;;;;26.38;23.77;;;;;;;;;;5026084;28;20045;-82
2023/04/27 11:52:16;;;;;;;28.27;25.25;;;;;;;;;;5009504;28;20041;-82
2023/04/27 11:55:07;;;;;;;6.47;2.70;;;;;;;;;;5027134;28;20099;-80
2023/04/27 11:57:35;;;;;;;3.63;2.67;;;;;;;;;;5012378;28;20049;-81
2023/04/27 12:00:13;;;;;;;5.55;2.90;;;;;;;;;;5028792;28;20080;-82
2023/04/27 12:02:42;;;;;;;4.05;3.75;;;;;;;;;;5011186;28;20053;-82
2023/04/27 12:05:11;;;;;;;2.38;2.17;;;;;;;;;;5026151;28;20144;-81
2023/04/27 12:07:40;;;;;;;4.43;4.13;;;;;;;;;;5021084;28;20061;-81
2023/04/27 12:10:08;;;;;;;5.05;2.60;;;;;;;;;;5006764;28;20071;-80
2023/04/27 12:12:35;;;;;;;7.20;2.92;;;;;;;;;;5020723;28;20038;-81
2023/04/27 12:15:03;;;;;;;10.55;4.32;;;;;;;;;;5035945;28;20049;-81
2023/04/27 12:17:32;;;;;;;3.85;2.10;;;;;;;;;;5024781;28;20053;-81
2023/04/27 12:19:59;;;;;;;7.32;2.47;;;;;;;;;;5009700;28;20140;-82
2023/04/27 12:22:27;;;;;;;5.55;1.98;;;;;;;;;;5026829;28;20053;-81
2023/04/27 12:24:56;;;;;;;381.30;324.67;;;;;;;;;;5022843;28;20112;-83
2023/04/27 12:27:25;;;;;;;7.25;5.63;;;;;;;;;;5021348;28;20041;-82
2023/04/27 12:29:53;;;;;;;4.82;2.38;;;;;;;;;;5003485;28;20072;-82
2023/04/27 12:32:21;;;;;;;5.45;4.93;;;;;;;;;;5022709;28;20041;-82
2023/04/27 12:34:48;;;;;;;2.30;1.52;;;;;;;;;;5025646;28;20056;-82
2023/04/27 12:37:16;;;;;;;4.65;4.35;;;;;;;;;;5009979;28;20087;-81
2023/04/27 12:39:43;;;;;;;10.57;7.82;;;;;;;;;;5025243;28;20113;-82
2023/04/27 12:42:11;;;;;;;3.42;2.33;;;;;;;;;;5008321;28;20052;-84
2023/04/27 12:44:38;;;;;;;2.65;2.33;;;;;;;;;;5010322;28;20091;-81
2023/04/27 12:47:06;;;;;;;5.47;4.93;;;;;;;;;;5012326;28;20068;-82
2023/04/27 12:49:33;;;;;;;25.52;20.67;;;;;;;;;;5022081;28;20045;-83
2023/04/27 12:52:01;;;;;;;4.13;3.72;;;;;;;;;;5031721;28;20084;-82
2023/04/27 12:54:28;;;;;;;1.88;1.33;;;;;;;;;;5035700;28;20042;-82
2023/04/27 12:56:56;;;;;;;2.90;2.70;;;;;;;;;;5030212;28;20071;-82
2023/04/27 12:59:23;;;;;;;3.85;3.25;;;;;;;;;;5033813;28;20053;-81
2023/04/27 13:01:51;;;;;;;2.45;1.50;;;;;;;;;;5016688;28;20064;-82
2023/04/27 13:04:19;;;;;;;2.78;1.85;;;;;;;;;;5026659;28;20060;-81
2023/04/27 13:06:48;;;;;;;3.45;2.13;;;;;;;;;;5028389;28;20529;-81
2023/04/27 13:09:16;;;;;;;3.03;2.35;;;;;;;;;;5029687;28;20100;-82
2023/04/27 13:11:44;;;;;;;4.93;2.78;;;;;;;;;;5004390;28;20046;-82
2023/04/27 13:14:11;;;;;;;2.50;1.80;;;;;;;;;;5008821;28;20447;-81
2023/04/27 13:16:40;;;;;;;4.47;1.80;;;;;;;;;;5027227;28;20051;-82
2023/04/27 13:19:08;;;;;;;5.03;1.85;;;;;;;;;;5012540;28;20046;-83
2023/04/27 13:21:37;;;;;;;3.67;2.58;;;;;;;;;;5030380;28;20474;-81
2023/04/27 13:24:05;;;;;;;4.72;2.00;;;;;;;;;;5029956;28;20033;-81
2023/04/27 13:26:33;;;;;;;3.88;1.50;;;;;;;;;;5029959;28;20117;-81
2023/04/27 13:29:03;;;;;;;6.95;1.73;;;;;;;;;;5029369;28;20469;-83
2023/04/27 13:31:32;;;;;;;5.93;2.03;;;;;;;;;;5039739;28;20057;-81
2023/04/27 13:34:00;;;;;;;2.63;2.30;;;;;;;;;;5037820;28;20049;-81
2023/04/27 13:36:27;;;;;;;4.85;1.83;;;;;;;;;;5012248;28;20049;-82
2023/04/27 13:38:55;;;;;;;10.55;1.70;;;;;;;;;;5010074;28;20049;-81
2023/04/27 13:41:23;;;;;;;6.00;3.17;;;;;;;;;;5011403;28;20144;-81
2023/04/27 13:43:50;;;;;;;2.60;2.00;;;;;;;;;;5028438;28;20500;-81
2023/04/27 13:46:17;;;;;;;4.78;2.08;;;;;;;;;;5026717;28;20046;-81
2023/04/27 13:48:45;;;;;;;2.30;2.00;;;;;;;;;;5024103;28;20140;-81
2023/04/27 13:51:12;;;;;;;3.25;2.75;;;;;;;;;;5028177;28;20041;-82
2023/04/27 13:53:40;;;;;;;3.95;2.33;;;;;;;;;;5028063;28;20045;-81
2023/04/27 13:56:08;;;;;;;3.15;2.05;;;;;;;;;;5029398;28;20041;-82
2023/04/27 13:58:35;;;;;;;8.20;4.00;;;;;;;;;;5028884;28;20038;-83
2023/04/27 14:01:03;;;;;;;2.78;2.58;;;;;;;;;;5026589;28;20057;-81
2023/04/27 14:03:32;;;;;;;8.73;7.55;;;;;;;;;;5009395;28;20465;-80
2023/04/27 14:06:00;;;;;;;4.55;2.28;;;;;;;;;;5027304;28;20049;-81
2023/04/27 14:08:28;;;;;;;5.05;2.25;;;;;;;;;;5020250;28;20101;-81
2023/04/27 14:10:55;;;;;;;4.07;1.90;;;;;;;;;;5040268;28;20030;-78
2023/04/27 14:13:23;;;;;;;4.93;2.67;;;;;;;;;;5034251;28;20578;-83
2023/04/27 14:15:50;;;;;;;1.58;1.48;;;;;;;;;;5029678;28;20075;-82
2023/04/27 14:18:18;;;;;;;1.50;1.33;;;;;;;;;;5028114;28;20121;-81
2023/04/27 14:20:45;;;;;;;4.03;1.67;;;;;;;;;;5003705;28;20124;-81
2023/04/27 14:23:16;;;;;;;3.00;1.53;;;;;;;;;;5024666;28;20403;-81
2023/04/27 14:25:44;;;;;;;5.45;2.72;;;;;;;;;;5008375;28;20048;-83
2023/04/27 14:28:13;;;;;;;3.22;1.85;;;;;;;;;;5020238;28;20392;-83
2023/04/27 14:30:41;;;;;;;8.05;5.60;;;;;;;;;;5019138;28;20065;-83
2023/04/27 14:33:08;;;;;;;26.77;16.73;;;;;;;;;;5011713;28;20054;-82
2023/04/27 14:35:36;;;;;;;3.38;3.08;;;;;;;;;;4995473;28;20419;-81
2023/04/27 14:38:03;;;;;;;4.93;3.03;;;;;;;;;;5013074;28;20107;-80
2023/04/27 14:40:31;;;;;;;3.58;2.35;;;;;;;;;;5033796;28;20057;-81
2023/04/27 14:42:59;;;;;;;5.28;3.50;;;;;;;;;;5055847;22;20052;-81
2023/04/27 14:45:26;;;;;;;9.70;2.00;;;;;;;;;;5053468;28;20041;-80
2023/04/27 14:48:06;;;;;;;3.47;2.67;;;;;;;;;;5054142;28;20083;-80
2023/04/27 14:50:33;;;;;;;3.70;3.20;;;;;;;;;;5061431;28;20040;-77
2023/04/27 14:53:01;;;;;;;4.70;3.90;;;;;;;;;;5059224;28;20056;-77